sensor_id;sensor_type;location;lat;lon;timestamp;P1;durP1;ratioP1;P2;durP2;ratioP2
25653;SDS011;13511;48.622;9.230;2023-08-07T00:00:57;5.88;;;2.00;;
25653;SDS011;13511;48.622;9.230;2023-08-07T00:03:23;2.25;;;2.08;;
25653;SDS011;13511;48.622;9.230;2023-08-07T00:05:49;2.35;;;1.98;;
25653;SDS011;13511;48.622;9.230;2023-08-07T00:08:16;2.38;;;2.00;;
25653;SDS011;13511;48.622;9.230;2023-08-07T00:10:42;2.20;;;2.10;;
25653;SDS011;13511;48.622;9.230;2023-08-07T00:13:08;1.90;;;1.65;;
25653;SDS011;13511;48.622;9.230;2023-08-07T00:15:37;2.45;;;2.22;;
25653;SDS011;13511;48.622;9.230;2023-08-07T00:18:03;2.63;;;1.75;;
25653;SDS011;13511;48.622;9.230;2023-08-07T00:20:29;1.95;;;1.80;;
25653;SDS011;13511;48.622;9.230;2023-08-07T00:22:56;3.78;;;2.20;;
25653;SDS011;13511;48.622;9.230;2023-08-07T00:25:22;2.20;;;1.80;;
25653;SDS011;13511;48.622;9.230;2023-08-07T00:27:48;6.72;;;2.00;;
25653;SDS011;13511;48.622;9.230;2023-08-07T00:30:14;2.92;;;2.50;;
25653;SDS011;13511;48.622;9.230;2023-08-07T00:32:40;3.47;;;2.00;;
25653;SDS011;13511;48.622;9.230;2023-08-07T00:35:06;2.22;;;1.95;;
25653;SDS011;13511;48.622;9.230;2023-08-07T00:37:36;3.15;;;1.90;;
25653;SDS011;13511;48.622;9.230;2023-08-07T00:40:02;3.97;;;2.28;;
25653;SDS011;13511;48.622;9.230;2023-08-07T00:42:28;3.83;;;2.08;;
25653;SDS011;13511;48.622;9.230;2023-08-07T00:44:54;7.18;;;2.40;;
25653;SDS011;13511;48.622;9.230;2023-08-07T00:47:20;2.55;;;2.00;;
25653;SDS011;13511;48.622;9.230;2023-08-07T00:49:47;4.13;;;2.03;;
25653;SDS011;13511;48.622;9.230;2023-08-07T00:52:13;3.33;;;2.00;;
25653;SDS011;13511;48.622;9.230;2023-08-07T00:54:39;3.80;;;2.42;;
25653;SDS011;13511;48.622;9.230;2023-08-07T00:57:12;5.10;;;2.13;;
25653;SDS011;13511;48.622;9.230;2023-08-07T00:59:40;1.95;;;1.85;;
25653;SDS011;13511;48.622;9.230;2023-08-07T01:02:06;2.67;;;2.10;;
25653;SDS011;13511;48.622;9.230;2023-08-07T01:04:32;4.40;;;2.08;;
25653;SDS011;13511;48.622;9.230;2023-08-07T01:06:58;3.13;;;2.13;;
25653;SDS011;13511;48.622;9.230;2023-08-07T01:09:24;3.58;;;2.10;;
25653;SDS011;13511;48.622;9.230;2023-08-07T01:11:55;2.30;;;2.20;;
25653;SDS011;13511;48.622;9.230;2023-08-07T01:19:24;2.50;;;2.20;;
25653;SDS011;13511;48.622;9.230;2023-08-07T01:21:54;3.00;;;2.13;;
25653;SDS011;13511;48.622;9.230;2023-08-07T01:24:29;2.28;;;2.15;;
25653;SDS011;13511;48.622;9.230;2023-08-07T01:26:55;5.07;;;2.15;;
25653;SDS011;13511;48.622;9.230;2023-08-07T01:29:26;3.75;;;2.13;;
25653;SDS011;13511;48.622;9.230;2023-08-07T01:31:57;3.83;;;2.15;;
25653;SDS011;13511;48.622;9.230;2023-08-07T01:34:25;3.58;;;2.17;;
25653;SDS011;13511;48.622;9.230;2023-08-07T01:36:51;4.90;;;2.40;;
25653;SDS011;13511;48.622;9.230;2023-08-07T01:39:19;3.65;;;2.22;;
25653;SDS011;13511;48.622;9.230;2023-08-07T01:41:45;3.00;;;2.28;;
25653;SDS011;13511;48.622;9.230;2023-08-07T01:44:12;2.20;;;2.10;;
25653;SDS011;13511;48.622;9.230;2023-08-07T01:46:38;2.40;;;2.30;;
25653;SDS011;13511;48.622;9.230;2023-08-07T01:49:04;2.50;;;2.30;;
25653;SDS011;13511;48.622;9.230;2023-08-07T01:51:30;3.92;;;2.33;;
25653;SDS011;13511;48.622;9.230;2023-08-07T01:53:56;4.80;;;2.40;;
25653;SDS011;13511;48.622;9.230;2023-08-07T01:56:22;2.33;;;2.13;;
25653;SDS011;13511;48.622;9.230;2023-08-07T01:58:48;2.47;;;2.08;;
25653;SDS011;13511;48.622;9.230;2023-08-07T02:01:14;3.75;;;2.30;;
25653;SDS011;13511;48.622;9.230;2023-08-07T02:03:40;2.30;;;2.15;;
25653;SDS011;13511;48.622;9.230;2023-08-07T02:06:06;5.05;;;2.15;;
25653;SDS011;13511;48.622;9.230;2023-08-07T02:08:32;1.95;;;1.85;;
25653;SDS011;13511;48.622;9.230;2023-08-07T02:10:58;8.23;;;2.28;;
25653;SDS011;13511;48.622;9.230;2023-08-07T02:13:26;3.92;;;2.08;;
25653;SDS011;13511;48.622;9.230;2023-08-07T02:15:52;6.45;;;2.33;;
25653;SDS011;13511;48.622;9.230;2023-08-07T02:18:18;3.10;;;2.00;;
25653;SDS011;13511;48.622;9.230;2023-08-07T02:20:44;3.50;;;2.35;;
25653;SDS011;13511;48.622;9.230;2023-08-07T02:23:11;4.38;;;2.20;;
25653;SDS011;13511;48.622;9.230;2023-08-07T02:25:37;2.38;;;2.03;;
25653;SDS011;13511;48.622;9.230;2023-08-07T02:28:03;4.72;;;2.13;;
25653;SDS011;13511;48.622;9.230;2023-08-07T02:30:30;3.00;;;2.28;;
25653;SDS011;13511;48.622;9.230;2023-08-07T02:32:56;2.63;;;1.98;;
25653;SDS011;13511;48.622;9.230;2023-08-07T02:35:22;4.20;;;2.45;;
25653;SDS011;13511;48.622;9.230;2023-08-07T02:37:48;2.10;;;2.00;;
25653;SDS011;13511;48.622;9.230;2023-08-07T02:40:14;4.10;;;2.30;;
25653;SDS011;13511;48.622;9.230;2023-08-07T02:42:42;4.75;;;2.03;;
25653;SDS011;13511;48.622;9.230;2023-08-07T02:45:08;2.53;;;2.25;;
25653;SDS011;13511;48.622;9.230;2023-08-07T02:47:34;2.55;;;1.90;;
25653;SDS011;13511;48.622;9.230;2023-08-07T02:50:00;1.75;;;1.65;;
25653;SDS011;13511;48.622;9.230;2023-08-07T02:52:26;3.47;;;2.08;;
25653;SDS011;13511;48.622;9.230;2023-08-07T02:54:52;2.28;;;2.08;;
25653;SDS011;13511;48.622;9.230;2023-08-07T02:57:18;3.78;;;2.38;;
25653;SDS011;13511;48.622;9.230;2023-08-07T02:59:44;2.63;;;2.13;;
25653;SDS011;13511;48.622;9.230;2023-08-07T03:02:10;2.42;;;2.20;;
25653;SDS011;13511;48.622;9.230;2023-08-07T03:04:36;2.65;;;2.20;;
25653;SDS011;13511;48.622;9.230;2023-08-07T03:07:02;8.32;;;2.20;;
25653;SDS011;13511;48.622;9.230;2023-08-07T03:09:28;3.13;;;1.90;;
25653;SDS011;13511;48.622;9.230;2023-08-07T03:11:54;2.50;;;2.30;;
25653;SDS011;13511;48.622;9.230;2023-08-07T03:14:20;3.60;;;2.00;;
25653;SDS011;13511;48.622;9.230;2023-08-07T03:16:46;3.35;;;2.22;;
25653;SDS011;13511;48.622;9.230;2023-08-07T03:19:12;2.47;;;2.22;;
25653;SDS011;13511;48.622;9.230;2023-08-07T03:21:39;2.63;;;2.42;;
25653;SDS011;13511;48.622;9.230;2023-08-07T03:24:05;4.50;;;2.53;;
25653;SDS011;13511;48.622;9.230;2023-08-07T03:26:31;2.25;;;2.13;;
25653;SDS011;13511;48.622;9.230;2023-08-07T03:28:57;3.90;;;2.20;;
25653;SDS011;13511;48.622;9.230;2023-08-07T03:31:23;2.58;;;2.22;;
25653;SDS011;13511;48.622;9.230;2023-08-07T03:33:49;3.78;;;2.13;;
25653;SDS011;13511;48.622;9.230;2023-08-07T03:36:15;4.10;;;2.00;;
25653;SDS011;13511;48.622;9.230;2023-08-07T03:38:41;3.47;;;1.95;;
25653;SDS011;13511;48.622;9.230;2023-08-07T03:41:07;3.00;;;2.40;;
25653;SDS011;13511;48.622;9.230;2023-08-07T03:43:33;4.07;;;2.20;;
25653;SDS011;13511;48.622;9.230;2023-08-07T03:45:59;4.40;;;2.00;;
25653;SDS011;13511;48.622;9.230;2023-08-07T03:48:25;4.05;;;2.47;;
25653;SDS011;13511;48.622;9.230;2023-08-07T03:50:51;3.97;;;2.50;;
25653;SDS011;13511;48.622;9.230;2023-08-07T03:53:17;3.00;;;2.75;;
25653;SDS011;13511;48.622;9.230;2023-08-07T03:55:48;6.32;;;2.45;;
25653;SDS011;13511;48.622;9.230;2023-08-07T03:58:14;3.15;;;2.40;;
25653;SDS011;13511;48.622;9.230;2023-08-07T04:00:40;4.47;;;2.28;;
25653;SDS011;13511;48.622;9.230;2023-08-07T04:03:06;4.03;;;2.72;;
25653;SDS011;13511;48.622;9.230;2023-08-07T04:05:33;2.92;;;2.58;;
25653;SDS011;13511;48.622;9.230;2023-08-07T04:07:59;3.63;;;2.58;;
25653;SDS011;13511;48.622;9.230;2023-08-07T04:10:25;5.38;;;2.83;;
25653;SDS011;13511;48.622;9.230;2023-08-07T04:12:51;6.63;;;2.60;;
25653;SDS011;13511;48.622;9.230;2023-08-07T04:15:17;3.42;;;2.50;;
25653;SDS011;13511;48.622;9.230;2023-08-07T04:17:43;5.30;;;2.92;;
25653;SDS011;13511;48.622;9.230;2023-08-07T04:20:09;3.65;;;2.60;;
25653;SDS011;13511;48.622;9.230;2023-08-07T04:22:35;4.20;;;2.65;;
25653;SDS011;13511;48.622;9.230;2023-08-07T04:25:01;5.05;;;3.30;;
25653;SDS011;13511;48.622;9.230;2023-08-07T04:27:27;2.65;;;2.45;;
25653;SDS011;13511;48.622;9.230;2023-08-07T04:29:53;3.50;;;2.50;;
25653;SDS011;13511;48.622;9.230;2023-08-07T04:32:19;2.60;;;2.17;;
25653;SDS011;13511;48.622;9.230;2023-08-07T04:34:45;6.85;;;2.65;;
25653;SDS011;13511;48.622;9.230;2023-08-07T04:37:11;3.25;;;2.78;;
25653;SDS011;13511;48.622;9.230;2023-08-07T04:39:37;2.95;;;2.00;;
25653;SDS011;13511;48.622;9.230;2023-08-07T04:42:03;4.10;;;2.58;;
25653;SDS011;13511;48.622;9.230;2023-08-07T04:44:29;4.50;;;2.65;;
25653;SDS011;13511;48.622;9.230;2023-08-07T04:46:55;4.32;;;2.65;;
25653;SDS011;13511;48.622;9.230;2023-08-07T04:49:22;4.78;;;2.88;;
25653;SDS011;13511;48.622;9.230;2023-08-07T04:51:48;3.33;;;2.53;;
25653;SDS011;13511;48.622;9.230;2023-08-07T04:54:14;5.60;;;2.53;;
25653;SDS011;13511;48.622;9.230;2023-08-07T04:56:39;4.32;;;2.53;;
25653;SDS011;13511;48.622;9.230;2023-08-07T04:59:07;3.80;;;2.67;;
25653;SDS011;13511;48.622;9.230;2023-08-07T05:01:33;6.32;;;2.58;;
25653;SDS011;13511;48.622;9.230;2023-08-07T05:03:59;3.30;;;2.20;;
25653;SDS011;13511;48.622;9.230;2023-08-07T05:06:25;4.80;;;2.90;;
25653;SDS011;13511;48.622;9.230;2023-08-07T05:08:51;2.53;;;2.33;;
25653;SDS011;13511;48.622;9.230;2023-08-07T05:11:17;3.55;;;2.50;;
25653;SDS011;13511;48.622;9.230;2023-08-07T05:13:45;3.60;;;3.13;;
25653;SDS011;13511;48.622;9.230;2023-08-07T05:16:11;4.25;;;2.47;;
25653;SDS011;13511;48.622;9.230;2023-08-07T05:18:37;2.40;;;2.30;;
25653;SDS011;13511;48.622;9.230;2023-08-07T05:21:03;3.42;;;2.45;;
25653;SDS011;13511;48.622;9.230;2023-08-07T05:23:29;4.18;;;2.67;;
25653;SDS011;13511;48.622;9.230;2023-08-07T05:25:55;2.75;;;2.40;;
25653;SDS011;13511;48.622;9.230;2023-08-07T05:28:21;7.43;;;2.78;;
25653;SDS011;13511;48.622;9.230;2023-08-07T05:30:47;3.28;;;2.97;;
25653;SDS011;13511;48.622;9.230;2023-08-07T05:33:13;5.05;;;2.80;;
25653;SDS011;13511;48.622;9.230;2023-08-07T05:35:40;2.35;;;2.25;;
25653;SDS011;13511;48.622;9.230;2023-08-07T05:38:06;3.75;;;2.38;;
25653;SDS011;13511;48.622;9.230;2023-08-07T05:40:33;3.20;;;2.50;;
25653;SDS011;13511;48.622;9.230;2023-08-07T05:43:01;2.65;;;2.40;;
25653;SDS011;13511;48.622;9.230;2023-08-07T05:45:27;2.80;;;2.58;;
25653;SDS011;13511;48.622;9.230;2023-08-07T05:47:53;7.68;;;2.90;;
25653;SDS011;13511;48.622;9.230;2023-08-07T05:50:19;4.88;;;2.40;;
25653;SDS011;13511;48.622;9.230;2023-08-07T05:52:45;4.40;;;2.47;;
25653;SDS011;13511;48.622;9.230;2023-08-07T05:55:11;3.17;;;2.10;;
25653;SDS011;13511;48.622;9.230;2023-08-07T05:57:37;3.15;;;2.38;;
25653;SDS011;13511;48.622;9.230;2023-08-07T06:00:04;2.70;;;2.50;;
25653;SDS011;13511;48.622;9.230;2023-08-07T06:02:30;2.45;;;2.28;;
25653;SDS011;13511;48.622;9.230;2023-08-07T06:04:56;3.83;;;2.47;;
25653;SDS011;13511;48.622;9.230;2023-08-07T06:07:22;3.47;;;2.53;;
25653;SDS011;13511;48.622;9.230;2023-08-07T06:09:48;2.63;;;2.42;;
25653;SDS011;13511;48.622;9.230;2023-08-07T06:12:14;3.13;;;2.83;;
25653;SDS011;13511;48.622;9.230;2023-08-07T06:14:40;4.40;;;2.97;;
25653;SDS011;13511;48.622;9.230;2023-08-07T06:17:06;5.38;;;2.42;;
25653;SDS011;13511;48.622;9.230;2023-08-07T06:19:32;5.68;;;2.63;;
25653;SDS011;13511;48.622;9.230;2023-08-07T06:21:58;4.68;;;2.85;;
25653;SDS011;13511;48.622;9.230;2023-08-07T06:24:24;3.92;;;2.50;;
25653;SDS011;13511;48.622;9.230;2023-08-07T06:26:50;4.78;;;2.58;;
25653;SDS011;13511;48.622;9.230;2023-08-07T06:29:16;2.78;;;2.53;;
25653;SDS011;13511;48.622;9.230;2023-08-07T06:31:42;3.88;;;2.40;;
25653;SDS011;13511;48.622;9.230;2023-08-07T06:34:08;3.03;;;2.75;;
25653;SDS011;13511;48.622;9.230;2023-08-07T06:36:34;3.75;;;3.40;;
25653;SDS011;13511;48.622;9.230;2023-08-07T06:39:00;3.92;;;3.00;;
25653;SDS011;13511;48.622;9.230;2023-08-07T06:41:27;5.03;;;2.80;;
25653;SDS011;13511;48.622;9.230;2023-08-07T06:43:53;7.82;;;2.60;;
25653;SDS011;13511;48.622;9.230;2023-08-07T06:46:19;3.42;;;2.45;;
25653;SDS011;13511;48.622;9.230;2023-08-07T06:48:49;4.28;;;2.55;;
25653;SDS011;13511;48.622;9.230;2023-08-07T06:51:15;2.45;;;2.25;;
25653;SDS011;13511;48.622;9.230;2023-08-07T06:53:41;3.53;;;2.65;;
25653;SDS011;13511;48.622;9.230;2023-08-07T06:56:07;3.80;;;2.55;;
25653;SDS011;13511;48.622;9.230;2023-08-07T06:58:33;2.45;;;2.17;;
25653;SDS011;13511;48.622;9.230;2023-08-07T07:00:59;4.20;;;2.40;;
25653;SDS011;13511;48.622;9.230;2023-08-07T07:03:26;5.03;;;3.55;;
25653;SDS011;13511;48.622;9.230;2023-08-07T07:05:52;3.38;;;2.70;;
25653;SDS011;13511;48.622;9.230;2023-08-07T07:08:18;5.50;;;3.70;;
25653;SDS011;13511;48.622;9.230;2023-08-07T07:10:44;3.05;;;2.63;;
25653;SDS011;13511;48.622;9.230;2023-08-07T07:13:10;2.60;;;2.40;;
25653;SDS011;13511;48.622;9.230;2023-08-07T07:15:36;2.47;;;2.25;;
25653;SDS011;13511;48.622;9.230;2023-08-07T07:18:02;3.20;;;2.63;;
25653;SDS011;13511;48.622;9.230;2023-08-07T07:20:28;3.72;;;2.55;;
25653;SDS011;13511;48.622;9.230;2023-08-07T07:22:54;6.35;;;2.75;;
25653;SDS011;13511;48.622;9.230;2023-08-07T07:25:20;3.85;;;2.88;;
25653;SDS011;13511;48.622;9.230;2023-08-07T07:27:46;4.53;;;2.80;;
25653;SDS011;13511;48.622;9.230;2023-08-07T07:30:12;4.40;;;2.85;;
25653;SDS011;13511;48.622;9.230;2023-08-07T07:32:38;4.55;;;2.70;;
25653;SDS011;13511;48.622;9.230;2023-08-07T07:35:04;3.47;;;2.53;;
25653;SDS011;13511;48.622;9.230;2023-08-07T07:37:30;2.72;;;2.53;;
25653;SDS011;13511;48.622;9.230;2023-08-07T07:39:56;2.78;;;2.45;;
25653;SDS011;13511;48.622;9.230;2023-08-07T07:42:22;3.92;;;2.40;;
25653;SDS011;13511;48.622;9.230;2023-08-07T07:44:48;2.45;;;2.25;;
25653;SDS011;13511;48.622;9.230;2023-08-07T07:47:14;4.10;;;2.17;;
25653;SDS011;13511;48.622;9.230;2023-08-07T07:49:44;2.75;;;2.55;;
25653;SDS011;13511;48.622;9.230;2023-08-07T07:52:10;4.65;;;2.33;;
25653;SDS011;13511;48.622;9.230;2023-08-07T07:54:36;3.15;;;2.85;;
25653;SDS011;13511;48.622;9.230;2023-08-07T07:57:02;3.53;;;2.35;;
25653;SDS011;13511;48.622;9.230;2023-08-07T07:59:28;3.05;;;2.30;;
25653;SDS011;13511;48.622;9.230;2023-08-07T08:01:54;3.03;;;2.78;;
25653;SDS011;13511;48.622;9.230;2023-08-07T08:04:20;2.53;;;2.30;;
25653;SDS011;13511;48.622;9.230;2023-08-07T08:06:46;3.90;;;2.03;;
25653;SDS011;13511;48.622;9.230;2023-08-07T08:09:13;2.50;;;2.20;;
25653;SDS011;13511;48.622;9.230;2023-08-07T08:11:40;4.68;;;2.17;;
25653;SDS011;13511;48.622;9.230;2023-08-07T08:14:06;2.90;;;2.58;;
25653;SDS011;13511;48.622;9.230;2023-08-07T08:16:32;2.55;;;2.35;;
25653;SDS011;13511;48.622;9.230;2023-08-07T08:18:58;2.58;;;2.38;;
25653;SDS011;13511;48.622;9.230;2023-08-07T08:21:24;4.68;;;2.20;;
25653;SDS011;13511;48.622;9.230;2023-08-07T08:23:50;2.55;;;2.38;;
25653;SDS011;13511;48.622;9.230;2023-08-07T08:26:16;2.97;;;2.45;;
25653;SDS011;13511;48.622;9.230;2023-08-07T08:28:42;2.50;;;2.30;;
25653;SDS011;13511;48.622;9.230;2023-08-07T08:31:08;2.30;;;2.20;;
25653;SDS011;13511;48.622;9.230;2023-08-07T08:33:34;2.22;;;2.13;;
25653;SDS011;13511;48.622;9.230;2023-08-07T08:36:00;2.85;;;2.65;;
25653;SDS011;13511;48.622;9.230;2023-08-07T08:38:26;2.90;;;2.65;;
25653;SDS011;13511;48.622;9.230;2023-08-07T08:40:57;2.35;;;2.25;;
25653;SDS011;13511;48.622;9.230;2023-08-07T08:43:24;3.67;;;2.20;;
25653;SDS011;13511;48.622;9.230;2023-08-07T08:45:51;3.35;;;2.30;;
25653;SDS011;13511;48.622;9.230;2023-08-07T08:48:19;2.72;;;2.58;;
25653;SDS011;13511;48.622;9.230;2023-08-07T08:50:49;2.70;;;2.50;;
25653;SDS011;13511;48.622;9.230;2023-08-07T08:53:15;2.30;;;2.20;;
25653;SDS011;13511;48.622;9.230;2023-08-07T08:55:42;2.35;;;2.25;;
25653;SDS011;13511;48.622;9.230;2023-08-07T08:58:12;2.58;;;2.47;;
25653;SDS011;13511;48.622;9.230;2023-08-07T09:00:38;2.53;;;2.30;;
25653;SDS011;13511;48.622;9.230;2023-08-07T09:03:05;3.28;;;2.22;;
25653;SDS011;13511;48.622;9.230;2023-08-07T09:05:31;4.15;;;2.53;;
25653;SDS011;13511;48.622;9.230;2023-08-07T09:07:57;9.02;;;2.58;;
25653;SDS011;13511;48.622;9.230;2023-08-07T09:10:24;2.95;;;2.75;;
25653;SDS011;13511;48.622;9.230;2023-08-07T09:12:58;3.05;;;2.35;;
25653;SDS011;13511;48.622;9.230;2023-08-07T09:15:25;2.55;;;2.35;;
25653;SDS011;13511;48.622;9.230;2023-08-07T09:17:51;2.22;;;2.13;;
25653;SDS011;13511;48.622;9.230;2023-08-07T09:20:19;3.15;;;2.20;;
25653;SDS011;13511;48.622;9.230;2023-08-07T09:22:46;2.50;;;2.30;;
25653;SDS011;13511;48.622;9.230;2023-08-07T09:25:12;2.75;;;2.50;;
25653;SDS011;13511;48.622;9.230;2023-08-07T09:27:38;2.55;;;2.45;;
25653;SDS011;13511;48.622;9.230;2023-08-07T09:30:07;2.75;;;2.30;;
25653;SDS011;13511;48.622;9.230;2023-08-07T09:32:34;2.20;;;2.10;;
25653;SDS011;13511;48.622;9.230;2023-08-07T09:35:02;2.50;;;2.30;;
25653;SDS011;13511;48.622;9.230;2023-08-07T09:37:28;2.88;;;2.33;;
25653;SDS011;13511;48.622;9.230;2023-08-07T09:39:54;3.25;;;2.10;;
25653;SDS011;13511;48.622;9.230;2023-08-07T09:42:20;4.65;;;2.42;;
25653;SDS011;13511;48.622;9.230;2023-08-07T09:44:46;4.07;;;2.03;;
25653;SDS011;13511;48.622;9.230;2023-08-07T09:47:16;2.20;;;2.10;;
25653;SDS011;13511;48.622;9.230;2023-08-07T09:49:43;3.40;;;2.50;;
25653;SDS011;13511;48.622;9.230;2023-08-07T09:52:10;2.60;;;2.40;;
25653;SDS011;13511;48.622;9.230;2023-08-07T09:54:38;2.42;;;2.33;;
25653;SDS011;13511;48.622;9.230;2023-08-07T09:57:04;3.10;;;2.50;;
25653;SDS011;13511;48.622;9.230;2023-08-07T09:59:34;2.47;;;2.28;;
25653;SDS011;13511;48.622;9.230;2023-08-07T10:02:00;2.63;;;2.50;;
25653;SDS011;13511;48.622;9.230;2023-08-07T10:04:27;2.28;;;2.10;;
25653;SDS011;13511;48.622;9.230;2023-08-07T10:06:53;2.58;;;2.40;;
25653;SDS011;13511;48.622;9.230;2023-08-07T10:09:19;2.83;;;2.63;;
25653;SDS011;13511;48.622;9.230;2023-08-07T10:11:46;5.25;;;2.40;;
25653;SDS011;13511;48.622;9.230;2023-08-07T10:14:12;2.72;;;2.53;;
25653;SDS011;13511;48.622;9.230;2023-08-07T10:16:39;3.72;;;2.70;;
25653;SDS011;13511;48.622;9.230;2023-08-07T10:19:06;2.83;;;2.63;;
25653;SDS011;13511;48.622;9.230;2023-08-07T10:21:33;3.10;;;2.88;;
25653;SDS011;13511;48.622;9.230;2023-08-07T10:24:00;2.55;;;2.35;;
25653;SDS011;13511;48.622;9.230;2023-08-07T10:26:28;2.72;;;2.50;;
25653;SDS011;13511;48.622;9.230;2023-08-07T10:28:55;4.47;;;2.55;;
25653;SDS011;13511;48.622;9.230;2023-08-07T10:31:22;2.53;;;2.42;;
25653;SDS011;13511;48.622;9.230;2023-08-07T10:33:49;2.63;;;2.50;;
25653;SDS011;13511;48.622;9.230;2023-08-07T10:36:15;5.15;;;2.60;;
25653;SDS011;13511;48.622;9.230;2023-08-07T10:38:42;3.15;;;2.88;;
25653;SDS011;13511;48.622;9.230;2023-08-07T10:41:09;3.60;;;2.60;;
25653;SDS011;13511;48.622;9.230;2023-08-07T10:43:38;3.17;;;2.25;;
25653;SDS011;13511;48.622;9.230;2023-08-07T10:46:05;4.20;;;2.67;;
25653;SDS011;13511;48.622;9.230;2023-08-07T10:48:42;3.17;;;2.90;;
25653;SDS011;13511;48.622;9.230;2023-08-07T10:51:08;3.40;;;3.10;;
25653;SDS011;13511;48.622;9.230;2023-08-07T10:53:39;2.50;;;2.30;;
25653;SDS011;13511;48.622;9.230;2023-08-07T10:56:16;2.80;;;2.60;;
25653;SDS011;13511;48.622;9.230;2023-08-07T10:58:42;2.70;;;2.50;;
25653;SDS011;13511;48.622;9.230;2023-08-07T11:03:48;2.50;;;2.40;;
25653;SDS011;13511;48.622;9.230;2023-08-07T11:06:15;2.60;;;2.40;;
25653;SDS011;13511;48.622;9.230;2023-08-07T11:08:41;3.45;;;2.75;;
25653;SDS011;13511;48.622;9.230;2023-08-07T11:11:08;2.80;;;2.60;;
25653;SDS011;13511;48.622;9.230;2023-08-07T11:13:34;2.85;;;2.72;;
25653;SDS011;13511;48.622;9.230;2023-08-07T11:16:00;2.80;;;2.60;;
25653;SDS011;13511;48.622;9.230;2023-08-07T11:18:27;2.92;;;2.72;;
25653;SDS011;13511;48.622;9.230;2023-08-07T11:20:56;4.25;;;2.80;;
25653;SDS011;13511;48.622;9.230;2023-08-07T11:23:23;2.80;;;2.65;;
25653;SDS011;13511;48.622;9.230;2023-08-07T11:25:50;3.70;;;2.75;;
25653;SDS011;13511;48.622;9.230;2023-08-07T11:28:19;4.30;;;2.78;;
25653;SDS011;13511;48.622;9.230;2023-08-07T11:30:49;2.78;;;2.67;;
25653;SDS011;13511;48.622;9.230;2023-08-07T11:33:20;2.65;;;2.55;;
25653;SDS011;13511;48.622;9.230;2023-08-07T11:35:47;2.88;;;2.72;;
25653;SDS011;13511;48.622;9.230;2023-08-07T11:38:15;3.10;;;2.90;;
25653;SDS011;13511;48.622;9.230;2023-08-07T11:40:56;2.70;;;2.60;;
25653;SDS011;13511;48.622;9.230;2023-08-07T11:43:22;3.13;;;3.00;;
25653;SDS011;13511;48.622;9.230;2023-08-07T11:45:48;2.78;;;2.67;;
25653;SDS011;13511;48.622;9.230;2023-08-07T11:48:14;3.08;;;2.90;;
25653;SDS011;13511;48.622;9.230;2023-08-07T11:50:41;3.10;;;2.90;;
25653;SDS011;13511;48.622;9.230;2023-08-07T11:53:08;2.97;;;2.78;;
25653;SDS011;13511;48.622;9.230;2023-08-07T11:55:34;2.95;;;2.75;;
25653;SDS011;13511;48.622;9.230;2023-08-07T11:58:03;3.25;;;3.05;;
25653;SDS011;13511;48.622;9.230;2023-08-07T12:00:29;2.95;;;2.75;;
25653;SDS011;13511;48.622;9.230;2023-08-07T12:02:55;2.70;;;2.60;;
25653;SDS011;13511;48.622;9.230;2023-08-07T12:05:21;3.95;;;2.72;;
25653;SDS011;13511;48.622;9.230;2023-08-07T12:07:48;2.85;;;2.50;;
25653;SDS011;13511;48.622;9.230;2023-08-07T12:10:14;2.75;;;2.55;;
25653;SDS011;13511;48.622;9.230;2023-08-07T12:12:42;3.00;;;2.80;;
25653;SDS011;13511;48.622;9.230;2023-08-07T12:15:09;2.53;;;2.42;;
25653;SDS011;13511;48.622;9.230;2023-08-07T12:17:38;2.60;;;2.50;;
25653;SDS011;13511;48.622;9.230;2023-08-07T12:20:04;2.90;;;2.70;;
25653;SDS011;13511;48.622;9.230;2023-08-07T12:22:36;2.88;;;2.78;;
25653;SDS011;13511;48.622;9.230;2023-08-07T12:25:02;3.13;;;2.92;;
25653;SDS011;13511;48.622;9.230;2023-08-07T12:27:28;2.75;;;2.65;;
25653;SDS011;13511;48.622;9.230;2023-08-07T12:29:55;2.97;;;2.88;;
25653;SDS011;13511;48.622;9.230;2023-08-07T12:32:21;3.10;;;2.60;;
25653;SDS011;13511;48.622;9.230;2023-08-07T12:34:47;3.20;;;3.05;;
25653;SDS011;13511;48.622;9.230;2023-08-07T12:37:15;6.10;;;2.60;;
25653;SDS011;13511;48.622;9.230;2023-08-07T12:39:41;3.40;;;3.10;;
25653;SDS011;13511;48.622;9.230;2023-08-07T12:42:07;3.53;;;3.03;;
25653;SDS011;13511;48.622;9.230;2023-08-07T12:44:33;3.13;;;2.95;;
25653;SDS011;13511;48.622;9.230;2023-08-07T12:46:59;3.28;;;3.10;;
25653;SDS011;13511;48.622;9.230;2023-08-07T12:49:25;3.50;;;2.83;;
25653;SDS011;13511;48.622;9.230;2023-08-07T12:51:51;3.00;;;2.80;;
25653;SDS011;13511;48.622;9.230;2023-08-07T12:54:18;3.05;;;2.95;;
25653;SDS011;13511;48.622;9.230;2023-08-07T12:56:44;3.17;;;2.97;;
25653;SDS011;13511;48.622;9.230;2023-08-07T12:59:10;3.47;;;3.20;;
25653;SDS011;13511;48.622;9.230;2023-08-07T13:01:36;7.85;;;3.25;;
25653;SDS011;13511;48.622;9.230;2023-08-07T13:04:02;3.95;;;2.85;;
25653;SDS011;13511;48.622;9.230;2023-08-07T13:06:30;3.17;;;3.00;;
25653;SDS011;13511;48.622;9.230;2023-08-07T13:08:56;3.25;;;2.90;;
25653;SDS011;13511;48.622;9.230;2023-08-07T13:11:22;2.80;;;2.60;;
25653;SDS011;13511;48.622;9.230;2023-08-07T13:13:48;2.88;;;2.67;;
25653;SDS011;13511;48.622;9.230;2023-08-07T13:16:14;3.15;;;2.95;;
25653;SDS011;13511;48.622;9.230;2023-08-07T13:18:40;3.17;;;2.85;;
25653;SDS011;13511;48.622;9.230;2023-08-07T13:21:06;3.22;;;2.90;;
25653;SDS011;13511;48.622;9.230;2023-08-07T13:23:32;3.17;;;2.88;;
25653;SDS011;13511;48.622;9.230;2023-08-07T13:25:58;3.65;;;2.42;;
25653;SDS011;13511;48.622;9.230;2023-08-07T13:28:24;3.22;;;3.03;;
25653;SDS011;13511;48.622;9.230;2023-08-07T13:30:50;3.28;;;3.08;;
25653;SDS011;13511;48.622;9.230;2023-08-07T13:33:18;3.20;;;3.00;;
25653;SDS011;13511;48.622;9.230;2023-08-07T13:35:45;2.92;;;2.72;;
25653;SDS011;13511;48.622;9.230;2023-08-07T13:38:11;4.05;;;3.00;;
25653;SDS011;13511;48.622;9.230;2023-08-07T13:40:39;3.05;;;2.85;;
25653;SDS011;13511;48.622;9.230;2023-08-07T13:43:05;4.60;;;3.10;;
25653;SDS011;13511;48.622;9.230;2023-08-07T13:45:32;2.58;;;2.47;;
25653;SDS011;13511;48.622;9.230;2023-08-07T13:47:58;3.58;;;2.83;;
25653;SDS011;13511;48.622;9.230;2023-08-07T13:50:24;3.00;;;2.80;;
25653;SDS011;13511;48.622;9.230;2023-08-07T13:52:50;6.40;;;2.67;;
25653;SDS011;13511;48.622;9.230;2023-08-07T13:55:16;3.67;;;2.88;;
25653;SDS011;13511;48.622;9.230;2023-08-07T13:57:42;4.05;;;2.80;;
25653;SDS011;13511;48.622;9.230;2023-08-07T14:00:09;2.55;;;2.45;;
25653;SDS011;13511;48.622;9.230;2023-08-07T14:02:36;4.05;;;2.97;;
25653;SDS011;13511;48.622;9.230;2023-08-07T14:05:02;3.50;;;2.83;;
25653;SDS011;13511;48.622;9.230;2023-08-07T14:07:28;2.78;;;2.58;;
25653;SDS011;13511;48.622;9.230;2023-08-07T14:09:54;2.97;;;2.78;;
25653;SDS011;13511;48.622;9.230;2023-08-07T14:12:20;2.85;;;2.75;;
25653;SDS011;13511;48.622;9.230;2023-08-07T14:14:46;2.40;;;2.30;;
25653;SDS011;13511;48.622;9.230;2023-08-07T14:17:12;2.65;;;2.28;;
25653;SDS011;13511;48.622;9.230;2023-08-07T14:19:38;4.15;;;2.63;;
25653;SDS011;13511;48.622;9.230;2023-08-07T14:22:04;2.40;;;2.30;;
25653;SDS011;13511;48.622;9.230;2023-08-07T14:24:30;2.95;;;2.55;;
25653;SDS011;13511;48.622;9.230;2023-08-07T14:26:56;2.97;;;2.78;;
25653;SDS011;13511;48.622;9.230;2023-08-07T14:29:22;2.78;;;2.63;;
25653;SDS011;13511;48.622;9.230;2023-08-07T14:31:48;2.67;;;2.58;;
25653;SDS011;13511;48.622;9.230;2023-08-07T14:34:14;2.53;;;2.42;;
25653;SDS011;13511;48.622;9.230;2023-08-07T14:36:40;2.78;;;2.58;;
25653;SDS011;13511;48.622;9.230;2023-08-07T14:39:06;3.42;;;3.17;;
25653;SDS011;13511;48.622;9.230;2023-08-07T14:41:32;2.88;;;2.78;;
25653;SDS011;13511;48.622;9.230;2023-08-07T14:43:58;3.45;;;2.83;;
25653;SDS011;13511;48.622;9.230;2023-08-07T14:46:24;3.22;;;2.92;;
25653;SDS011;13511;48.622;9.230;2023-08-07T14:48:50;2.80;;;2.70;;
25653;SDS011;13511;48.622;9.230;2023-08-07T14:51:16;2.60;;;2.50;;